Fromissard ULM

FR-0371 · Tarn-et-Garonne, Occitanie, França

História da METAR FR-0371 · Fromissard ULM

Abaixo você vê METARs dos últimos dias. Selecione um ano para navegar pelos METARs mais antigos, a partir do ano 2007.

29 de novembro de 2022

Hora Código Clima Temp. Visibilidade Tecto Vento METAR/SPECI
19:30
V
7 °C 10 km+ - 310° 310° 4 kt SPECI LFBO 291830Z AUTO 31004KT 9999 NSC 07/05 Q1020 BECMG 3000 BR
19:30
V
7 °C 10 km+ - 310° 310° 4 kt METAR LFBO 291830Z AUTO 31004KT 9999 NSC 07/05 Q1020 BECMG 3000 BR
19:00
V
7 °C 10 km+ - 320° 320° 5 kt METAR LFBO 291800Z AUTO 32005KT 9999 NSC 07/06 Q1020 NOSIG
18:30
V
8 °C 10 km+ - Var Var 3 kt METAR LFBO 291730Z AUTO VRB03KT 9999 NSC 08/06 Q1020 NOSIG
18:00
V
8 °C 10 km+ - 320° 320° 4 kt METAR LFBO 291700Z AUTO 32004KT 9999 NSC 08/05 Q1020 NOSIG
17:30
V
9 °C 10 km+ - 340° 340° 5 kt METAR LFBO 291630Z AUTO 34005KT 9999 NSC 09/06 Q1020 NOSIG
17:00
V
10 °C 10 km+ - 330° 330° 9 kt METAR LFBO 291600Z AUTO 33009KT 9999 FEW022 10/07 Q1019 NOSIG
16:30
V
11 °C 10 km+ 5.800 ft 330° 330° 7 kt METAR LFBO 291530Z AUTO 33007KT 9999 FEW022 BKN058 11/07 Q1019 NOSIG
16:00
V
11 °C 10 km+ - 340° 340° 8 kt METAR LFBO 291500Z AUTO 34008KT 310V020 9999 FEW023 SCT064 11/07 Q1019 NOSIG
15:30
V
11 °C 10 km+ 5.800 ft 340° 340° 9 kt METAR LFBO 291430Z AUTO 34009KT 9999 SCT018 SCT027 BKN058 11/07 Q1019 NOSIG
15:00
V
11 °C 10 km+ - 350° 350° 9 kt METAR LFBO 291400Z AUTO 35009KT 320V030 9999 FEW016 11/07 Q1019 NOSIG
14:30
V
11 °C 10 km+ - 340° 340° 9 kt METAR LFBO 291330Z AUTO 34009KT 9999 FEW014 SCT039 11/07 Q1019 NOSIG
14:00
V
11 °C 10 km+ 3.300 ft 340° 340° 9 kt METAR LFBO 291300Z AUTO 34009KT 9999 SCT014 BKN033 11/07 Q1020 NOSIG
13:30
M
12 °C 10 km+ 2.100 ft 350° 350° 9 kt METAR LFBO 291230Z AUTO 35009KT 320V020 9999 SCT015 BKN021 BKN034 12/08 Q1020 NOSIG
13:00
M
12 °C 10 km+ 2.000 ft 330° 330° 8 kt METAR LFBO 291200Z AUTO 33008KT 9999 SCT015 BKN020 BKN027 12/08 Q1020 NOSIG
12:30
M
12 °C 10 km+ 1.500 ft 330° 330° 8 kt METAR LFBO 291130Z AUTO 33008KT 310V010 9999 BKN015 BKN020 BKN033 12/08 Q1020 TEMPO BKN008
12:00
M
11 °C 10 km+ 1.500 ft 300° 300° 11 kt METAR LFBO 291100Z AUTO 30011KT 9999 BKN015 BKN020 BKN030 11/08 Q1020 TEMPO BKN008
11:30
M
10 °C 10 km+ 1.400 ft 310° 310° 11 kt METAR LFBO 291030Z AUTO 31011KT 9999 BKN014 OVC043 10/08 Q1020 TEMPO BKN008
11:00
M
10 °C 10 km+ 1.800 ft 310° 310° 11 kt METAR LFBO 291000Z AUTO 31011KT 9999 FEW011 BKN018 OVC043 10/09 Q1020 TEMPO BKN008
10:30
M
10 °C 10 km+ 1.300 ft 300° 300° 8 kt METAR LFBO 290930Z AUTO 30008KT 9999 OVC013 10/08 Q1020 TEMPO BKN008
10:00
M
9 °C 10 km+ 1.000 ft 280° 280° 8 kt METAR LFBO 290900Z AUTO 28008KT 9999 BKN010 OVC016 09/08 Q1020 NOSIG
09:30
M
9 °C 10 km+ 1.000 ft 290° 290° 7 kt METAR LFBO 290830Z AUTO 29007KT 9999 BKN010/// BKN016/// BKN039/// //////CB 09/08 Q1020 TEMPO BKN008
09:00
I
9 °C 10 km+ 900 ft 280° 280° 9 kt METAR LFBO 290800Z AUTO 28009KT 9999 -RA BKN009/// OVC013/// //////TCU 09/08 Q1019 TEMPO BKN008
08:30
I
9 °C 10 km+ 900 ft 280° 280° 7 kt METAR LFBO 290730Z AUTO 28007KT 9999 OVC009/// //////TCU 09/08 Q1019 TEMPO BKN008
08:00
I
9 °C 10 km+ 800 ft 300° 300° 7 kt METAR LFBO 290700Z AUTO 30007KT 9999 BKN008 BKN027 BKN039 09/08 Q1019 NOSIG
07:30
V
9 °C 10 km+ 5.200 ft 280° 280° 8 kt METAR LFBO 290630Z AUTO 28008KT 9999 FEW003/// SCT041/// BKN052/// //////TCU 09/07 Q1019 TEMPO BKN008
07:00
V
8 °C 10 km+ - 270° 270° 9 kt METAR LFBO 290600Z AUTO 27009KT 9999 ///TCU 08/07 Q1019 TEMPO 4000 RA BKN006 BKN035TCU
06:30
V
8 °C 10 km+ - 270° 270° 9 kt METAR LFBO 290530Z AUTO 27009KT 9999 NSC 08/07 Q1019 TEMPO 4000 RA BKN006 BKN035TCU
06:00
V
8 °C 10 km+ - 270° 270° 8 kt METAR LFBO 290500Z AUTO 27008KT 9999 NSC 08/07 Q1019 TEMPO 4000 RA BKN006 BKN035TCU
05:30
V
8 °C 10 km+ 7.000 ft 270° 270° 8 kt METAR LFBO 290430Z AUTO 27008KT 9999 FEW008 BKN070 BKN100 08/07 Q1019 TEMPO 4000 RA BKN006 BKN035TCU
05:00
V
8 °C 10 km+ 5.400 ft 270° 270° 9 kt METAR LFBO 290400Z AUTO 27009KT 9999 FEW007 SCT043 BKN054 08/07 Q1019 TEMPO 4000 RA BKN006 BKN035TCU
04:30
I
8 °C 10 km+ 700 ft 270° 270° 8 kt METAR LFBO 290330Z AUTO 27008KT 9999 OVC007 08/07 Q1019 TEMPO 4000 RA BKN006 BKN035TCU
04:00
I
8 °C 10 km+ 700 ft 260° 260° 11 kt METAR LFBO 290300Z AUTO 26011KT 9999 BKN007 BKN012 BKN033 08/07 Q1019 BECMG BKN035
03:30
I
8 °C 10 km+ 700 ft 270° 270° 11 kt METAR LFBO 290230Z AUTO 27011KT 9999 BKN007 OVC029 08/07 Q1019 BECMG BKN035
03:00
V
8 °C 10 km+ 3.400 ft 270° 270° 10 kt METAR LFBO 290200Z AUTO 27010KT 9999 SCT007 BKN034 BKN110 08/07 Q1019 NOSIG
02:30
V
8 °C 10 km+ 11.000 ft 270° 270° 11 kt METAR LFBO 290130Z AUTO 27011KT 9999 FEW007 SCT044 BKN110 08/07 Q1019 NOSIG
02:00
V
8 °C 10 km+ 4.300 ft 260° 260° 12 kt METAR LFBO 290100Z AUTO 26012KT 9999 FEW036 BKN043 BKN049 08/07 Q1019 NOSIG
01:30
V
8 °C 10 km+ - 260° 260° 11 kt METAR LFBO 290030Z AUTO 26011KT 9999 FEW035 SCT046 08/07 Q1019 NOSIG
01:00
V
8 °C 10 km+ - 260° 260° 11 kt METAR LFBO 290000Z AUTO 26011KT 9999 FEW034 SCT041 08/07 Q1020 NOSIG
00:30
V
8 °C 10 km+ - 260° 260° 11 kt METAR LFBO 282330Z AUTO 26011KT 9999 SCT039 08/07 Q1020 BECMG BKN008
00:00
V
8 °C 10 km+ - 250° 250° 10 kt METAR LFBO 282300Z AUTO 25010KT 9999 FEW009 08/07 Q1020 BECMG BKN008

28 de novembro de 2022

Hora Código Clima Temp. Visibilidade Tecto Vento METAR/SPECI
23:30
V
9 °C 10 km+ - 260° 260° 11 kt METAR LFBO 282230Z AUTO 26011KT 9999 NSC 09/07 Q1020 BECMG BKN008
23:00
V
9 °C 10 km+ - 250° 250° 11 kt METAR LFBO 282200Z AUTO 25011KT 9999 NSC 09/07 Q1020 NOSIG
22:30
V
9 °C 10 km+ - 250° 250° 8 kt METAR LFBO 282130Z AUTO 25008KT 9999 FEW033 09/07 Q1020 NOSIG
22:00
V
9 °C 10 km+ - 260° 260° 10 kt METAR LFBO 282100Z AUTO 26010KT 9999 FEW034 SCT054 09/07 Q1020 NOSIG
21:30
V
9 °C 10 km+ - 260° 260° 9 kt METAR LFBO 282030Z AUTO 26009KT 9999 //////TCU 09/07 Q1020 BECMG BKN035
21:00
V
9 °C 10 km+ - 250° 250° 10 kt METAR LFBO 282000Z AUTO 25010KT 9999 NSC 09/07 Q1019 NOSIG
20:30
V
10 °C 10 km+ 5.000 ft 250° 250° 11 kt METAR LFBO 281930Z AUTO 25011KT 220V280 9999 FEW039/// BKN050/// BKN062/// ///TCU 10/07 Q1019 BECMG BKN035
20:00
V
10 °C 10 km+ 5.800 ft 260° 260° 15 kt METAR LFBO 281900Z AUTO 26015KT 9999 FEW037/// BKN058/// BKN086/// //////TCU 10/07 Q1019 TEMPO 4500 SHRA BECMG NSC
19:30
V
10 °C 10 km+ 5.000 ft 250° 250° 14 kt METAR LFBO 281830Z AUTO 25014KT 9999 FEW034/// BKN050/// BKN064/// //////CB 10/07 Q1019 TEMPO 4500 SHRA BECMG NSC
19:00
V
10 °C 10 km+ 6.600 ft 250° 250° 12 kt METAR LFBO 281800Z AUTO 25012KT 210V270 9999 FEW019/// SCT056/// BKN066/// //////CB 10/07 Q1019 TEMPO 4500 SHRA BKN014 BKN040TCU
18:30
V
10 °C 10 km+ 4.600 ft 240° 240° 11 kt METAR LFBO 281730Z AUTO 24011KT 9999 FEW019 BKN046 BKN056 10/07 Q1019 NOSIG
18:00
V
10 °C 10 km+ - 250° 250° 13 kt METAR LFBO 281700Z AUTO 25013KT 9999 FEW024 SCT240 10/07 Q1018 TEMPO 4000 -SHRA BKN020 BKN045TCU
17:30
M
11 °C 10 km+ 2.200 ft 260° 260° 13 kt METAR LFBO 281630Z AUTO 26013KT 9999 BKN022 BKN033 BKN039 11/08 Q1018 TEMPO 4000 -SHRA BKN020 BKN045TCU
17:00
M
11 °C 10 km+ 2.300 ft 260° 260° 14 kt METAR LFBO 281600Z AUTO 26014KT 9999 BKN023/// BKN034/// OVC060/// ///TCU 11/08 Q1018 TEMPO 4000 -SHRA
16:30
M
11 °C 10 km+ 2.400 ft 260° 260° 12 kt METAR LFBO 281530Z AUTO 26012KT 9999 BKN024/// BKN034/// BKN042/// //////TCU 11/08 Q1018 TEMPO 4000 -SHRA
16:00
M
12 °C 10 km+ 2.500 ft 260° 260° 14 kt METAR LFBO 281500Z AUTO 26014KT 9999 BKN025/// BKN044/// BKN058/// ///CB 12/08 Q1018 TEMPO 4000 -SHRA
15:30
M
12 °C 10 km+ 2.900 ft 270° 270° 14 kt METAR LFBO 281430Z AUTO 27014KT 9999 FEW024/// BKN029/// BKN039/// //////CB 12/09 Q1018 TEMPO 4000 -SHRA
15:00
V
12 °C 10 km+ 3.900 ft 270° 270° 15 kt METAR LFBO 281400Z AUTO 27015KT 9999 FEW025/// BKN039/// BKN054/// //////CB 12/07 Q1018 TEMPO 4000 -SHRA
14:30
V
13 °C 10 km+ - 270° 270° 12 kt METAR LFBO 281330Z AUTO 27012KT 9999 SCT022 SCT029 13/08 Q1018 TEMPO 4000 -SHRA BKN020 BKN045TCU
14:00
M
12 °C 10 km+ 2.800 ft 280° 280° 15 kt METAR LFBO 281300Z AUTO 28015KT 9999 SCT021 BKN028 BKN043 12/08 Q1018 TEMPO 4000 -SHRA BKN020 BKN045TCU
13:30
M
12 °C 10 km+ 1.900 ft 270° 270° 15 kt METAR LFBO 281230Z AUTO 27015KT 9999 BKN019 BKN024 BKN029 12/08 Q1018 TEMPO 4000 -SHRA BKN020 BKN045TCU
13:00
M
12 °C 10 km+ 1.700 ft 270° 270° 11 kt METAR LFBO 281200Z AUTO 27011KT 240V300 9999 BKN017 BKN060 BKN190 12/09 Q1018 TEMPO 4000 -SHRA BKN020 BKN045TCU
12:30
V
11 °C 10 km+ 21.000 ft 260° 260° 12 kt METAR LFBO 281130Z AUTO 26012KT 9999 FEW013 SCT190 BKN210 11/09 Q1019 TEMPO SCT015TCU BKN025
12:00
V
10 °C 10 km+ 20.000 ft 260° 260° 12 kt METAR LFBO 281100Z AUTO 26012KT 9999 FEW014 BKN200 BKN220 10/08 Q1019 TEMPO SCT015TCU BKN025
11:30
M
10 °C 10 km+ 1.100 ft 260° 260° 12 kt METAR LFBO 281030Z AUTO 26012KT 9999 BKN011 BKN056 BKN080 10/08 Q1019 TEMPO SCT015TCU BKN025
11:00
V
10 °C 10 km+ - 260° 260° 13 kt METAR LFBO 281000Z AUTO 26013KT CAVOK 10/08 Q1019 TEMPO SCT015TCU BKN025
10:30
V
9 °C 10 km+ - 260° 260° 12 kt METAR LFBO 280930Z AUTO 26012KT CAVOK 09/08 Q1019 TEMPO SCT015TCU BKN025
10:00
V
9 °C 10 km+ 6.400 ft 250° 250° 12 kt METAR LFBO 280900Z AUTO 25012KT 9999 FEW045 SCT054 BKN064 09/08 Q1019 TEMPO BKN006
09:30
V
9 °C 10 km+ 5.800 ft 270° 270° 13 kt METAR LFBO 280830Z AUTO 27013KT 9999 -RA FEW013 OVC058 09/08 Q1019 TEMPO BKN006
09:00
V
9 °C 10 km+ 5.400 ft 260° 260° 13 kt METAR LFBO 280800Z AUTO 26013KT 9999 FEW011 BKN054 BKN072 09/08 Q1018 TEMPO BKN006
08:30
V
9 °C 10 km+ 6.200 ft 260° 260° 12 kt METAR LFBO 280730Z AUTO 26012KT 9999 -DZ SCT031/// BKN062/// BKN088/// //////TCU 09/07 Q1018 TEMPO BKN006
08:00
V
9 °C 10 km+ 7.200 ft 250° 250° 10 kt METAR LFBO 280700Z AUTO 25010KT 9999 FEW014/// SCT050/// BKN072/// //////TCU 09/07 Q1018 TEMPO 4000 RA BKN006
07:30
M
9 °C 7 km 5.000 ft 260° 260° 12 kt METAR LFBO 280630Z AUTO 26012KT 7000 -RA FEW017/// BKN050/// OVC060/// //////TCU 09/08 Q1018 TEMPO 4000 RA BKN006
07:00
V
9 °C 10 km+ 6.200 ft 230° 230° 9 kt METAR LFBO 280600Z AUTO 23009KT 9999 SCT012/// SCT052/// BKN062/// //////TCU 09/08 Q1017 TEMPO 4000 RA BKN006
06:30
V
9 °C 10 km+ 4.600 ft 230° 230° 9 kt METAR LFBO 280530Z AUTO 23009KT 9999 -RA FEW012/// BKN046/// OVC058/// //////TCU 09/08 Q1017 TEMPO 4000 -RA OVC020
06:00
V
9 °C 10 km+ - 230° 230° 10 kt METAR LFBO 280500Z AUTO 23010KT 9999 -RA //////TCU 09/08 Q1017 TEMPO 4000 -RA OVC020
05:30
V
9 °C 10 km+ - 250° 250° 8 kt METAR LFBO 280430Z AUTO 25008KT 210V270 9999 -RA NSC 09/08 Q1017 TEMPO 4000 -RA
05:00
V
10 °C 10 km+ 5.800 ft 260° 260° 10 kt METAR LFBO 280400Z AUTO 26010KT 9999 -DZ FEW046 BKN058 OVC070 10/08 Q1017 TEMPO 29018G28KT 4000 -RA BKN013
04:30
V
10 °C 10 km+ - 270° 270° 9 kt METAR LFBO 280330Z AUTO 27009KT 9999 -RA ///TCU 10/08 Q1018 TEMPO 29018G28KT 4000 -RA OVC020
04:00
M
10 °C 10 km+ 2.000 ft 270° 270° 13 kt METAR LFBO 280300Z AUTO 27013KT 9999 -RA SCT015/// BKN020/// BKN048/// ///TCU 10/08 Q1018 TEMPO 29018G28KT 2000 RA BKN013
03:30
V
11 °C 10 km+ 3.500 ft 260° 260° 10 kt METAR LFBO 280230Z AUTO 26010KT 9999 SCT021 BKN035 OVC048 11/08 Q1018 TEMPO 29018G28KT 2000 RA BKN013
03:00
V
10 °C 10 km+ 4.200 ft 260° 260° 7 kt METAR LFBO 280200Z AUTO 26007KT 200V280 9999 FEW032/// BKN042/// OVC050/// //////TCU 10/09 Q1018 TEMPO 29018G28KT 2000 RA BKN013
02:30
V
9 °C 10 km+ 4.800 ft 190° 190° 2 kt METAR LFBO 280130Z AUTO 19002KT 9999 BKN048 OVC110 09/08 Q1018 TEMPO 29018G28KT 2000 RA BKN013
02:00
V
9 °C 10 km+ 11.000 ft 070° 070° 1 kt METAR LFBO 280100Z AUTO 07001KT 9999 FEW042 SCT056 OVC110 09/08 Q1017 TEMPO 29018G28KT 2000 RA BKN013
01:30
V
10 °C 10 km+ - Var Var 3 kt METAR LFBO 280030Z AUTO VRB03KT CAVOK 10/08 Q1018 TEMPO 29018G28KT 2000 RA BKN013
01:00
V
10 °C 10 km+ - 210° 210° 5 kt METAR LFBO 280000Z AUTO 21005KT CAVOK 10/08 Q1017 TEMPO 4000 -RA
00:30
V
10 °C 10 km+ - 220° 220° 7 kt METAR LFBO 272330Z AUTO 22007KT CAVOK 10/09 Q1018 TEMPO 4000 -RA
00:00
V
10 °C 10 km+ - 160° 160° 7 kt METAR LFBO 272300Z AUTO 16007KT CAVOK 10/09 Q1018 TEMPO 4000 -RA

27 de novembro de 2022

Hora Código Clima Temp. Visibilidade Tecto Vento METAR/SPECI
23:30
V
10 °C 10 km+ 15.000 ft 180° 180° 6 kt METAR LFBO 272230Z AUTO 18006KT 9999 FEW049 BKN150 OVC190 10/09 Q1018 TEMPO 4000 -RA
23:00
V
10 °C 10 km+ - 180° 180° 6 kt METAR LFBO 272200Z AUTO 18006KT CAVOK 10/09 Q1018 NOSIG
22:30
V
10 °C 10 km+ 20.000 ft 200° 200° 5 kt METAR LFBO 272130Z AUTO 20005KT 9999 FEW009 OVC200 10/08 Q1018 NOSIG
22:00
V
10 °C 10 km+ - 190° 190° 5 kt METAR LFBO 272100Z AUTO 19005KT CAVOK 10/08 Q1018 NOSIG
21:30
V
10 °C 10 km+ - 200° 200° 5 kt METAR LFBO 272030Z AUTO 20005KT CAVOK 10/08 Q1018 NOSIG
21:00
V
11 °C 10 km+ 19.000 ft 210° 210° 5 kt METAR LFBO 272000Z AUTO 21005KT 9999 FEW024 BKN190 11/08 Q1018 NOSIG
20:30
V
12 °C 10 km+ - 200° 200° 6 kt METAR LFBO 271930Z AUTO 20006KT 170V240 CAVOK 12/09 Q1018 NOSIG
20:00
V
12 °C 10 km+ 19.000 ft 150° 150° 12 kt METAR LFBO 271900Z AUTO 15012KT 9999 FEW010 BKN190 12/09 Q1017 TEMPO BKN013 BECMG 21007KT
19:30
V
12 °C 10 km+ - 140° 140° 13 kt METAR LFBO 271830Z AUTO 14013KT CAVOK 12/09 Q1017 TEMPO BKN013 BECMG 21007KT
19:00
V
12 °C 10 km+ - 140° 140° 13 kt METAR LFBO 271800Z AUTO 14013KT CAVOK 12/09 Q1017 TEMPO BKN013
18:30
V
11 °C 10 km+ - 140° 140° 11 kt METAR LFBO 271730Z AUTO 14011KT CAVOK 11/08 Q1018 TEMPO BKN013
18:00
V
11 °C 10 km+ 23.000 ft 140° 140° 12 kt METAR LFBO 271700Z AUTO 14012KT 110V170 9999 FEW013 BKN230 11/08 Q1018 TEMPO BKN013
17:30
V
12 °C 10 km+ - 140° 140° 15 kt METAR LFBO 271630Z AUTO 14015KT CAVOK 12/08 Q1018 TEMPO BKN013
17:00
V
12 °C 10 km+ - 140° 140° 13 kt METAR LFBO 271600Z AUTO 14013KT 100V180 CAVOK 12/08 Q1018 TEMPO 14015G25KT
16:30
V
12 °C 10 km+ - 140° 140° 15 kt METAR LFBO 271530Z AUTO 14015KT CAVOK 12/08 Q1019 TEMPO 14015G25KT
16:00
V
12 °C 10 km+ - 140° 140° 14 kt METAR LFBO 271500Z AUTO 14014KT CAVOK 12/08 Q1019 TEMPO 14015G25KT
15:30
V
12 °C 10 km+ - 140° 140° 15 kt METAR LFBO 271430Z AUTO 14015KT CAVOK 12/08 Q1019 TEMPO 14015G25KT
15:00
V
12 °C 10 km+ - 140° 140° 15 kt METAR LFBO 271400Z AUTO 14015KT CAVOK 12/08 Q1019 TEMPO 14015G25KT
14:30
V
12 °C 10 km+ - 150° 150° 15 kt METAR LFBO 271330Z AUTO 15015KT CAVOK 12/07 Q1020 TEMPO 14015G25KT
14:00
V
12 °C 10 km+ - 140° 140° 16 kt METAR LFBO 271300Z AUTO 14016KT CAVOK 12/07 Q1020 TEMPO 14015G25KT
13:30
V
12 °C 10 km+ - 150° 150° 17 kt METAR LFBO 271230Z AUTO 15017KT CAVOK 12/07 Q1021 TEMPO 14015G25KT
13:00
V
12 °C 10 km+ - 140° 140° 17 kt METAR LFBO 271200Z AUTO 14017KT CAVOK 12/07 Q1021 TEMPO 14015G25KT
12:30
V
12 °C 10 km+ - 150° 150° 14 kt METAR LFBO 271130Z AUTO 15014KT CAVOK 12/07 Q1022 NOSIG
12:00
V
11 °C 10 km+ - 140° 140° 15 kt METAR LFBO 271100Z AUTO 14015KT 9999 FEW012 11/07 Q1022 NOSIG
11:30
V
11 °C 10 km+ - 140° 140° 12 kt METAR LFBO 271030Z AUTO 14012KT CAVOK 11/07 Q1022 NOSIG
11:00
V
11 °C 10 km+ - 150° 150° 12 kt METAR LFBO 271000Z AUTO 15012KT 9999 FEW012 11/06 Q1023 NOSIG

Nós e terceiros acompanhamos seu comportamento na internet em nosso site com cookies. Se você continuar, nós assumimos que você concorda com nosso política de cookies.